Alba, Missouri
Current Conditions -  °F | °C
As of 10:53 AM on Friday 24 Oct 2014 (Local Time) from KJLN Reporting Station
Clear Clear  
Wind Chill: 18°   Ceiling: Unl
Heat Index: 18°   Visibility: 10mi
Dew Point: 13°   Wind: 12mph
Humidity: 73%   Direction: 210°SSW
Pressure: 30.12"   Gusts: NA
Location:  37.24°N, 94.42°W
Report Text: KJLN 241553Z 21010KT 10SM CLR 18/13 A3012 RMK AO2 SLP196 T01830133
Loading
Personal Weather Stations






























Interactive Weather Map
Tropical Storm Tracking
New forecast layout! Learn more

10-Day Weather Forecast

Advertisements
Track Severe Weather on mobile